createdAt,value
2019-06-07T00:00:40.000Z,14.50
2019-06-07T00:03:42.568Z,14.40
2019-06-07T00:06:47.008Z,14.30
2019-06-07T00:09:51.554Z,14.30
2019-06-07T00:12:56.669Z,14.20
2019-06-07T00:16:01.233Z,14.10
2019-06-07T00:19:05.801Z,14.10
2019-06-07T00:22:20.921Z,14.10
2019-06-07T00:25:22.837Z,14.10
2019-06-07T00:28:23.488Z,14.00
2019-06-07T00:31:28.073Z,14.10
2019-06-07T00:34:33.588Z,14.00
2019-06-07T00:37:38.309Z,14.10
2019-06-07T00:40:42.891Z,14.00
2019-06-07T00:43:47.483Z,14.00
2019-06-07T00:46:52.059Z,14.00
2019-06-07T00:49:56.785Z,14.00
2019-06-07T00:53:23.356Z,14.00
2019-06-07T00:56:07.558Z,14.00
2019-06-07T00:59:16.100Z,14.00
2019-06-07T01:02:22.243Z,13.90
2019-06-07T01:05:31.063Z,13.90
2019-06-07T01:08:31.434Z,13.90
2019-06-07T01:11:36.022Z,13.90
2019-06-07T01:14:40.682Z,14.00
2019-06-07T01:18:25.858Z,13.90
2019-06-07T01:20:51.461Z,14.00
2019-06-07T01:24:10.659Z,14.00
2019-06-07T01:27:02.294Z,13.90
2019-06-07T01:30:08.978Z,13.90
2019-06-07T01:33:13.531Z,13.80
2019-06-07T01:36:19.568Z,13.80
2019-06-07T01:39:29.296Z,13.70
2019-06-07T01:42:31.023Z,13.80
2019-06-07T01:45:35.841Z,13.70
2019-06-07T01:48:49.323Z,13.60
2019-06-07T01:51:46.628Z,13.70
2019-06-07T01:54:57.976Z,13.50
2019-06-07T01:57:57.413Z,13.50
2019-06-07T02:01:02.025Z,13.40
2019-06-07T02:04:06.666Z,13.50
2019-06-07T02:07:11.223Z,13.50
2019-06-07T02:10:25.771Z,13.30
2019-06-07T02:13:30.613Z,13.30
2019-06-07T02:16:34.363Z,13.40
2019-06-07T02:19:38.919Z,13.40
2019-06-07T02:22:43.515Z,13.40
2019-06-07T02:25:50.426Z,13.30
2019-06-07T02:28:54.351Z,13.20
2019-06-07T02:31:58.842Z,13.30
2019-06-07T02:35:03.447Z,13.20
2019-06-07T02:38:08.092Z,13.30
2019-06-07T02:41:12.733Z,13.30
2019-06-07T02:44:17.339Z,13.40
2019-06-07T02:47:22.729Z,13.40
2019-06-07T02:50:29.158Z,13.50
2019-06-07T02:53:38.357Z,13.60
2019-06-07T02:56:56.682Z,13.70
2019-06-07T03:00:06.493Z,13.70
2019-06-07T03:02:52.367Z,13.80
2019-06-07T03:05:57.263Z,13.80
2019-06-07T03:09:02.270Z,13.90
2019-06-07T03:12:08.119Z,14.00
2019-06-07T03:15:32.248Z,14.10
2019-06-07T03:18:41.581Z,14.10
2019-06-07T03:21:45.748Z,14.10
2019-06-07T03:24:51.265Z,14.20
2019-06-07T03:27:55.916Z,14.20
2019-06-07T03:31:02.663Z,14.30
2019-06-07T03:34:06.722Z,14.30
2019-06-07T03:37:11.343Z,14.40
2019-06-07T03:40:16.042Z,14.50
2019-06-07T03:43:21.514Z,14.40
2019-06-07T03:46:27.324Z,14.40
2019-06-07T03:49:38.738Z,14.40
2019-06-07T03:52:41.325Z,14.40
2019-06-07T03:55:44.859Z,14.40
2019-06-07T03:58:50.571Z,14.40
2019-06-07T04:01:56.081Z,14.50
2019-06-07T04:05:00.785Z,14.40
2019-06-07T04:08:05.979Z,14.40
2019-06-07T04:11:10.567Z,14.40
2019-06-07T04:14:15.614Z,14.50
2019-06-07T04:17:20.155Z,14.50
2019-06-07T04:20:24.687Z,14.50
2019-06-07T04:23:31.748Z,14.60
2019-06-07T04:26:37.447Z,14.60
2019-06-07T04:30:05.372Z,14.50
2019-06-07T04:32:49.792Z,14.60
2019-06-07T04:35:56.743Z,14.70
2019-06-07T04:39:02.531Z,14.60
2019-06-07T04:42:07.400Z,14.60
2019-06-07T04:45:33.027Z,14.70
2019-06-07T04:48:21.366Z,14.80
2019-06-07T04:51:27.381Z,14.70
2019-06-07T04:54:34.726Z,14.80
2019-06-07T04:57:42.711Z,14.70
2019-06-07T05:00:52.810Z,14.90
2019-06-07T05:03:52.992Z,14.80
2019-06-07T05:06:58.061Z,14.90
2019-06-07T05:10:04.325Z,14.90
2019-06-07T05:13:08.887Z,15.00
2019-06-07T05:16:13.908Z,15.00
2019-06-07T05:19:18.583Z,15.00
2019-06-07T05:22:23.564Z,15.10
2019-06-07T05:25:28.051Z,15.10
2019-06-07T05:28:35.147Z,15.30
2019-06-07T05:31:44.956Z,15.30
2019-06-07T05:34:47.617Z,15.30
2019-06-07T05:37:53.367Z,15.40
2019-06-07T05:40:58.400Z,15.40
2019-06-07T05:44:12.531Z,15.30
2019-06-07T05:47:10.089Z,15.30
2019-06-07T05:50:38.464Z,15.30
2019-06-07T05:53:22.024Z,15.40
2019-06-07T05:56:26.991Z,15.40
2019-06-07T05:59:33.420Z,15.50
2019-06-07T06:02:58.591Z,15.50
2019-06-07T06:05:53.970Z,15.50
2019-06-07T06:08:52.342Z,15.60
2019-06-07T06:12:02.330Z,15.50
2019-06-07T06:15:03.523Z,15.60
2019-06-07T06:18:08.290Z,15.60
2019-06-07T06:21:19.710Z,15.60
2019-06-07T06:24:21.765Z,15.60
2019-06-07T06:28:03.472Z,15.70
2019-06-07T06:30:33.169Z,15.80
2019-06-07T06:33:37.744Z,15.90
2019-06-07T06:36:44.601Z,16.00
2019-06-07T06:39:50.177Z,16.10
2019-06-07T06:42:55.368Z,16.10
2019-06-07T06:46:00.410Z,16.10
2019-06-07T06:49:05.277Z,16.10
2019-06-07T06:52:10.222Z,16.10
2019-06-07T06:55:16.950Z,16.20
2019-06-07T06:58:22.723Z,16.20
2019-06-07T07:01:27.231Z,16.20
2019-06-07T07:04:31.978Z,16.00
2019-06-07T07:07:36.921Z,16.00
2019-06-07T07:10:45.747Z,16.00
2019-06-07T07:13:55.841Z,16.10
2019-06-07T07:16:57.928Z,16.10
2019-06-07T07:20:03.043Z,16.20
2019-06-07T07:23:07.736Z,16.10
2019-06-07T07:26:12.208Z,16.20
2019-06-07T07:29:17.237Z,16.20
2019-06-07T07:32:21.771Z,16.10
2019-06-07T07:35:26.397Z,16.20
2019-06-07T07:38:30.910Z,16.30
2019-06-07T07:41:35.479Z,16.30
2019-06-07T07:44:40.112Z,16.50
2019-06-07T07:48:03.187Z,16.50
2019-06-07T07:50:59.266Z,16.60
2019-06-07T07:54:10.247Z,16.80
2019-06-07T07:57:05.923Z,16.90
2019-06-07T08:00:48.838Z,17.00
2019-06-07T08:03:17.308Z,17.00
2019-06-07T08:06:22.267Z,17.10
2019-06-07T08:09:27.418Z,17.10
2019-06-07T08:12:54.566Z,17.30
2019-06-07T08:15:39.276Z,17.40
2019-06-07T08:18:48.729Z,17.30
2019-06-07T08:21:53.053Z,17.30
2019-06-07T08:25:02.347Z,17.40
2019-06-07T08:28:04.348Z,17.40
2019-06-07T08:31:09.524Z,17.60
2019-06-07T08:34:14.519Z,17.50
2019-06-07T08:37:19.403Z,17.70
2019-06-07T08:40:24.364Z,17.60
2019-06-07T08:43:30.716Z,17.70
2019-06-07T08:46:35.386Z,17.70
2019-06-07T08:49:40.716Z,17.80
2019-06-07T08:52:45.240Z,17.80
2019-06-07T08:55:52.478Z,17.90
2019-06-07T08:59:00.541Z,18.00
2019-06-07T09:02:14.575Z,18.20
2019-06-07T09:05:12.454Z,18.30
2019-06-07T09:08:29.137Z,18.50
2019-06-07T09:11:22.154Z,18.50
2019-06-07T09:14:26.728Z,18.70
2019-06-07T09:17:31.665Z,18.60
2019-06-07T09:20:45.807Z,18.90
2019-06-07T09:23:50.423Z,19.00
2019-06-07T09:26:55.856Z,19.20
2019-06-07T09:30:07.612Z,19.40
2019-06-07T09:33:09.070Z,19.60
2019-06-07T09:36:14.141Z,19.90
2019-06-07T09:39:19.058Z,20.40
2019-06-07T09:42:24.193Z,20.60
2019-06-07T09:45:29.791Z,21.00
2019-06-07T09:49:09.837Z,21.20
2019-06-07T09:51:41.322Z,21.40
2019-06-07T09:57:52.989Z,22.00
2019-06-07T10:01:02.066Z,22.20
2019-06-07T10:04:10.701Z,22.20
2019-06-07T10:07:30.171Z,22.20
2019-06-07T10:13:24.435Z,22.60
2019-06-07T10:16:32.939Z,22.90
2019-06-07T10:19:35.936Z,23.20
2019-06-07T10:22:40.544Z,23.40
2019-06-07T10:25:45.446Z,23.40
2019-06-07T10:28:53.241Z,23.50
2019-06-07T10:31:56.212Z,23.50
2019-06-07T10:35:03.313Z,23.60
2019-06-07T10:38:08.597Z,23.60
2019-06-07T10:41:13.328Z,23.70
2019-06-07T10:44:18.296Z,23.70
2019-06-07T10:47:22.898Z,23.80
2019-06-07T10:50:46.475Z,24.00
2019-06-07T10:53:51.055Z,24.00
2019-06-07T10:56:55.633Z,24.10
2019-06-07T11:00:00.241Z,24.20
2019-06-07T11:03:05.924Z,24.40
2019-06-07T11:06:11.998Z,24.60
2019-06-07T11:09:16.825Z,24.70
2019-06-07T11:12:21.432Z,25.00
2019-06-07T11:15:26.487Z,25.30
2019-06-07T11:18:37.374Z,25.60
2019-06-07T11:21:42.310Z,25.70
2019-06-07T11:24:46.891Z,25.80
2019-06-07T11:27:51.527Z,25.90
2019-06-07T11:30:56.060Z,26.20
2019-06-07T11:34:00.890Z,26.30
2019-06-07T11:37:07.306Z,26.60
2019-06-07T11:40:35.028Z,26.80
2019-06-07T11:43:19.079Z,27.00
2019-06-07T11:46:24.147Z,27.20
2019-06-07T11:49:30.521Z,27.40
2019-06-07T11:52:35.499Z,27.50
2019-06-07T11:55:41.080Z,27.40
2019-06-07T11:59:04.845Z,27.10
2019-06-07T12:02:09.524Z,27.00
2019-06-07T12:05:18.307Z,27.00
2019-06-07T12:08:20.998Z,27.30
2019-06-07T12:11:25.563Z,27.40
2019-06-07T12:14:30.145Z,27.50
2019-06-07T12:17:34.749Z,27.70
2019-06-07T12:20:39.368Z,27.90
2019-06-07T12:23:43.932Z,28.10
2019-06-07T12:26:48.805Z,28.20
2019-06-07T12:29:53.438Z,28.40
2019-06-07T12:32:58.009Z,28.50
2019-06-07T12:36:02.552Z,28.70
2019-06-07T12:39:08.261Z,28.80
2019-06-07T12:42:12.878Z,29.10
2019-06-07T12:45:41.229Z,29.50
2019-06-07T12:48:26.169Z,29.70
2019-06-07T12:51:33.823Z,29.80
2019-06-07T12:54:38.429Z,29.70
2019-06-07T12:57:43.064Z,29.80
2019-06-07T13:00:50.307Z,29.70
2019-06-07T13:03:54.941Z,29.60
2019-06-07T13:06:59.529Z,29.70
2019-06-07T13:10:04.263Z,29.90
2019-06-07T13:13:08.810Z,30.00
2019-06-07T13:16:13.541Z,30.20
2019-06-07T13:19:18.458Z,30.20
2019-06-07T13:22:24.286Z,30.30
2019-06-07T13:25:44.114Z,30.20
2019-06-07T13:28:36.236Z,30.20
2019-06-07T13:31:41.387Z,30.30
2019-06-07T13:34:46.841Z,29.80
2019-06-07T13:37:51.793Z,29.30
2019-06-07T13:40:57.811Z,28.80
2019-06-07T13:44:02.380Z,28.40
2019-06-07T13:47:06.975Z,28.30
2019-06-07T13:50:13.598Z,27.80
2019-06-07T13:53:18.950Z,27.30
2019-06-07T13:56:24.024Z,26.90
2019-06-07T13:59:29.094Z,26.50
2019-06-07T14:02:34.604Z,26.40
2019-06-07T14:05:39.247Z,26.40
2019-06-07T14:08:43.858Z,26.60
2019-06-07T14:11:50.833Z,26.70
2019-06-07T14:14:54.732Z,26.60
2019-06-07T14:17:59.274Z,26.30
2019-06-07T14:21:03.916Z,26.10
2019-06-07T14:24:08.520Z,26.00
2019-06-07T14:27:13.132Z,26.20
2019-06-07T14:30:18.257Z,26.10
2019-06-07T14:33:25.027Z,26.00
2019-06-07T14:36:29.084Z,25.90
2019-06-07T14:39:33.791Z,25.80
2019-06-07T14:42:38.383Z,25.80
2019-06-07T14:45:42.919Z,25.80
2019-06-07T14:48:47.586Z,25.80
2019-06-07T14:51:52.474Z,25.70
2019-06-07T14:54:57.160Z,25.60
2019-06-07T14:58:01.708Z,25.60
2019-06-07T15:01:06.350Z,25.60
2019-06-07T15:04:10.953Z,25.60
2019-06-07T15:07:15.553Z,25.60
2019-06-07T15:10:20.381Z,25.60
2019-06-07T15:13:25.067Z,25.50
2019-06-07T15:16:30.124Z,25.50
2019-06-07T15:19:36.284Z,25.40
2019-06-07T15:22:41.013Z,25.30
2019-06-07T15:25:45.875Z,25.20
2019-06-07T15:28:50.524Z,25.20
2019-06-07T15:31:55.089Z,24.90
2019-06-07T15:34:59.581Z,24.80
2019-06-07T15:38:23.331Z,24.70
2019-06-07T15:41:28.932Z,24.60
2019-06-07T15:44:37.576Z,24.50
2019-06-07T15:47:42.126Z,24.40
2019-06-07T15:50:47.885Z,24.40
2019-06-07T15:53:53.923Z,24.30
2019-06-07T15:56:58.470Z,24.20
2019-06-07T16:00:07.469Z,24.10
2019-06-07T16:03:12.094Z,24.00
2019-06-07T16:06:19.451Z,24.00
2019-06-07T16:09:22.959Z,24.00
2019-06-07T16:12:27.600Z,23.90
2019-06-07T16:15:33.025Z,23.90
2019-06-07T16:18:37.790Z,23.90
2019-06-07T16:21:44.030Z,23.90
2019-06-07T16:24:48.621Z,23.80
2019-06-07T16:27:53.178Z,24.00
2019-06-07T16:30:57.777Z,23.90
2019-06-07T16:34:02.402Z,23.80
2019-06-07T16:37:07.403Z,23.80
2019-06-07T16:40:13.884Z,23.70
2019-06-07T16:43:18.758Z,23.70
2019-06-07T16:46:23.796Z,23.70
2019-06-07T16:49:28.455Z,23.70
2019-06-07T16:52:34.396Z,23.70
2019-06-07T16:55:38.962Z,23.60
2019-06-07T16:58:44.369Z,23.50
2019-06-07T17:01:49.561Z,23.40
2019-06-07T17:04:54.178Z,23.40
2019-06-07T17:08:00.405Z,23.40
2019-06-07T17:11:05.060Z,23.20
2019-06-07T17:14:09.711Z,23.20
2019-06-07T17:17:14.358Z,23.10
2019-06-07T17:20:19.411Z,23.00
2019-06-07T17:23:23.986Z,23.10
2019-06-07T17:26:28.564Z,23.00
2019-06-07T17:29:33.124Z,23.00
2019-06-07T17:32:56.269Z,23.00
2019-06-07T17:35:51.074Z,23.00
2019-06-07T17:39:15.103Z,22.80
2019-06-07T17:42:19.641Z,22.80
2019-06-07T17:45:24.612Z,22.70
2019-06-07T17:48:29.195Z,22.60
2019-06-07T17:51:34.188Z,22.60
2019-06-07T17:54:39.239Z,22.60
2019-06-07T17:57:44.328Z,22.50
2019-06-07T18:00:53.076Z,22.40
2019-06-07T18:03:58.658Z,22.40
2019-06-07T18:07:03.357Z,22.30
2019-06-07T18:10:09.652Z,22.20
2019-06-07T18:13:14.703Z,22.20
2019-06-07T18:16:19.253Z,22.10
2019-06-07T18:19:24.269Z,22.10
2019-06-07T18:22:35.388Z,22.00
2019-06-07T18:25:40.588Z,22.00
2019-06-07T18:28:46.503Z,21.80
2019-06-07T18:31:52.789Z,21.90
2019-06-07T18:34:57.494Z,21.70
2019-06-07T18:38:02.979Z,21.70
2019-06-07T18:41:07.936Z,21.60
2019-06-07T18:44:21.198Z,21.60
2019-06-07T18:47:19.102Z,21.50
2019-06-07T18:50:24.767Z,21.40
2019-06-07T18:53:29.349Z,21.40
2019-06-07T18:56:35.078Z,21.30
2019-06-07T18:59:40.019Z,21.30
2019-06-07T19:02:44.651Z,21.30
2019-06-07T19:05:50.287Z,21.20
2019-06-07T19:08:56.701Z,21.10
2019-06-07T19:12:01.862Z,21.00
2019-06-07T19:15:07.902Z,21.00
2019-06-07T19:18:12.965Z,21.00
2019-06-07T19:21:18.347Z,20.90
2019-06-07T19:24:22.941Z,20.80
2019-06-07T19:27:27.535Z,20.70
2019-06-07T19:30:32.548Z,20.80
2019-06-07T19:33:48.651Z,20.80
2019-06-07T19:36:48.850Z,20.50
2019-06-07T19:39:51.723Z,20.60
2019-06-07T19:42:58.511Z,20.60
2019-06-07T19:46:03.192Z,20.40
2019-06-07T19:49:08.279Z,20.40
2019-06-07T19:52:13.568Z,20.40
2019-06-07T19:55:18.505Z,20.40
2019-06-07T19:58:23.109Z,20.30
2019-06-07T20:01:28.044Z,20.40
2019-06-07T20:04:33.377Z,20.30
2019-06-07T20:07:38.051Z,20.30
2019-06-07T20:10:42.617Z,20.30
2019-06-07T20:13:47.203Z,20.30
2019-06-07T20:16:51.789Z,20.30
2019-06-07T20:19:56.451Z,20.20
2019-06-07T20:23:03.045Z,20.30
2019-06-07T20:26:08.866Z,20.20
2019-06-07T20:29:25.465Z,20.30
2019-06-07T20:32:20.082Z,20.30
2019-06-07T20:35:24.786Z,20.30
2019-06-07T20:38:29.303Z,20.40
2019-06-07T20:41:33.994Z,20.20
2019-06-07T20:44:38.641Z,20.40
2019-06-07T20:47:43.204Z,20.40
2019-06-07T20:50:49.119Z,20.40
2019-06-07T20:53:54.782Z,20.40
2019-06-07T20:57:00.604Z,20.40
2019-06-07T21:00:14.579Z,20.50
2019-06-07T21:03:13.212Z,20.50
2019-06-07T21:06:17.842Z,20.50
2019-06-07T21:09:22.409Z,20.40
2019-06-07T21:12:26.896Z,20.40
2019-06-07T21:15:31.958Z,20.30
2019-06-07T21:18:37.447Z,20.20
2019-06-07T21:21:42.037Z,20.30
2019-06-07T21:24:46.723Z,20.20
2019-06-07T21:27:51.785Z,20.20
2019-06-07T21:30:56.669Z,20.10
2019-06-07T21:34:01.410Z,20.20
2019-06-07T21:37:06.101Z,20.30
2019-06-07T21:40:12.217Z,20.20
2019-06-07T21:43:18.657Z,20.10
2019-06-07T21:46:23.262Z,20.30
2019-06-07T21:49:28.159Z,20.20
2019-06-07T21:52:32.999Z,20.20
2019-06-07T21:55:38.606Z,20.20
2019-06-07T21:58:43.209Z,20.20
2019-06-07T22:01:47.750Z,20.20
2019-06-07T22:04:52.617Z,20.20
2019-06-07T22:07:57.242Z,20.20
2019-06-07T22:11:02.217Z,20.10
2019-06-07T22:14:08.247Z,20.20
2019-06-07T22:17:15.648Z,20.10
2019-06-07T22:20:20.627Z,20.10
2019-06-07T22:23:26.158Z,20.10
2019-06-07T22:26:30.768Z,20.20
2019-06-07T22:29:35.248Z,20.00
2019-06-07T22:32:40.079Z,20.10
2019-06-07T22:35:44.593Z,20.20
2019-06-07T22:38:49.220Z,20.20
2019-06-07T22:41:54.234Z,20.10
2019-06-07T22:44:58.793Z,20.20
2019-06-07T22:48:03.333Z,20.20
2019-06-07T22:51:11.319Z,20.20
2019-06-07T22:54:16.111Z,20.30
2019-06-07T22:57:24.419Z,20.30
2019-06-07T23:00:31.442Z,20.30
2019-06-07T23:03:35.937Z,20.30
2019-06-07T23:06:40.526Z,20.30
2019-06-07T23:09:45.500Z,20.20
2019-06-07T23:12:50.139Z,20.10
2019-06-07T23:15:54.680Z,20.30
2019-06-07T23:18:59.273Z,20.10
2019-06-07T23:22:03.862Z,20.10
2019-06-07T23:25:09.999Z,20.10
2019-06-07T23:28:14.610Z,20.10
2019-06-07T23:31:20.798Z,20.10
2019-06-07T23:34:25.952Z,20.00
2019-06-07T23:37:31.009Z,20.00
2019-06-07T23:40:35.678Z,20.10
2019-06-07T23:43:40.261Z,20.10
2019-06-07T23:46:44.856Z,20.20
2019-06-07T23:49:49.453Z,20.30
2019-06-07T23:52:54.272Z,20.40
2019-06-07T23:55:58.833Z,20.30
2019-06-07T23:59:03.686Z,20.30
